首页
METAR-TAF:

METAR-TAF

机场 :

McGuire Air Force Base

Wrightstown, 新泽西州, 美国

纬度: 40-01N, 经度: 074-36W, 海拔: 41米

当前天气观测

该预报发布于31分钟前的06:56 UTC
风速3节,风向
温度 7°C
湿度 100%
气压 1015 hPa
能見度: 16.1公里
多云层高于300英尺
阴天层高于1300英尺

METAR: KWRI 310656Z 09003KT 10SM BKN003 OVC013 07/07 A2996 RMK AO2A BKN V OVC SLP145 T00670067 $

时间: 03:27 (07:27 UTC)

预报

该预报发布于5小时和27分钟前的02:00 UTC
预报有效从31日的 02点(UTC)到 01日的 08点(UTC)
风速6节,风向多变
能見度: 3200
阴天层高于300英尺
轻雾
短暂存在
从 31日的 02点(UTC)到 31日的 09点(UTC)
能見度: 0800
多云层高于100英尺
小阵雨, 雾
成为
从 31日的 09点(UTC)到 31日的 10点(UTC)
风速7节,风向北转东北
能見度: 6000
多云层高于900英尺
轻雾
成为
从 31日的 12点(UTC)到 31日的 13点(UTC)
风速9节,风向东转东北
能见度10公里或以上
多云层高于1500英尺
成为
从 31日的 17点(UTC)到 31日的 18点(UTC)
风速9节,风向
能见度10公里或以上
多云层高于3000英尺
成为
从 31日的 23点(UTC)到 31日的 24点(UTC)
风速6节,风向多变
能见度10公里或以上
多云层高于2500英尺

TAF: KWRI 310200Z 3102/0108 VRB06KT 3200 BR OVC003 QNH2991INS TEMPO 3102/3109 0800 -SHRA FG BKN001 BECMG 3109/3110 03007KT 6000 BR BKN009 QNH2992INS BECMG 3112/3113 06009KT 9999 NSW BKN015 QNH2998INS BECMG 3117/3118 08009KT 9999 BKN030 QNH2994INS BECMG 3123/3124 VRB06KT 9999 BKN025 QNH2986INS TX08/3118Z TN06/3111Z

超过4000个机场的气象观测和天气预报(METAR&TAF报告)。

可查询的气象台以黄色和红色小点在地图上表示。

将鼠标移到小点上方,可查看气象台名称。

然后点击查看天气观测和预报。

如需切换地图:点击带黑十字的绿色按钮放大地图;点击带横线的绿色按钮缩小地图;或者点击绿色箭头查看邻近地区的地图。


METAR-TAF: